createdAt,value
2022-12-24T00:01:05.217Z,41.85
2022-12-24T00:03:33.308Z,40.22
2022-12-24T00:06:04.177Z,41.88
2022-12-24T00:08:31.144Z,40.03
2022-12-24T00:10:58.101Z,41.10
2022-12-24T00:13:25.510Z,42.97
2022-12-24T00:15:52.552Z,40.58
2022-12-24T00:18:19.546Z,42.38
2022-12-24T00:20:48.764Z,39.80
2022-12-24T00:23:17.513Z,44.42
2022-12-24T00:25:45.271Z,47.35
2022-12-24T00:28:13.158Z,40.38
2022-12-24T00:30:41.328Z,39.80
2022-12-24T00:33:08.939Z,40.53
2022-12-24T00:35:37.591Z,38.72
2022-12-24T00:38:04.640Z,41.13
2022-12-24T00:40:32.402Z,38.60
2022-12-24T00:42:59.607Z,38.95
2022-12-24T00:45:29.227Z,39.05
2022-12-24T00:47:56.219Z,38.00
2022-12-24T00:50:23.182Z,39.13
2022-12-24T00:52:50.326Z,38.28
2022-12-24T00:55:17.346Z,38.85
2022-12-24T00:57:44.268Z,38.85
2022-12-24T01:00:11.799Z,39.25
2022-12-24T01:02:39.065Z,39.33
2022-12-24T01:05:12.370Z,39.60
2022-12-24T01:07:44.022Z,37.75
2022-12-24T01:10:13.416Z,38.30
2022-12-24T01:12:40.729Z,38.85
2022-12-24T01:15:08.811Z,38.53
2022-12-24T01:17:36.415Z,36.50
2022-12-24T01:20:06.184Z,37.83
2022-12-24T01:22:33.532Z,41.17
2022-12-24T01:25:00.489Z,38.70
2022-12-24T01:27:27.405Z,38.55
2022-12-24T01:29:54.299Z,39.47
2022-12-24T01:32:22.076Z,39.35
2022-12-24T01:34:48.987Z,39.03
2022-12-24T01:37:15.945Z,40.25
2022-12-24T01:39:42.883Z,37.92
2022-12-24T01:42:42.322Z,38.22
2022-12-24T01:45:43.839Z,39.20
2022-12-24T01:48:22.418Z,39.45
2022-12-24T01:50:53.001Z,38.13
2022-12-24T01:53:19.967Z,37.50
2022-12-24T01:55:47.793Z,36.58
2022-12-24T01:58:17.864Z,36.97
2022-12-24T02:00:45.278Z,37.60
2022-12-24T02:03:12.594Z,37.53
2022-12-24T02:05:42.657Z,38.13
2022-12-24T02:08:09.812Z,35.97
2022-12-24T02:10:36.777Z,37.33
2022-12-24T02:13:04.740Z,36.72
2022-12-24T02:15:41.603Z,36.28
2022-12-24T02:18:23.365Z,37.22
2022-12-24T02:21:09.066Z,36.10
2022-12-24T02:23:53.898Z,39.42
2022-12-24T02:26:42.082Z,35.70
2022-12-24T02:29:45.903Z,36.13
2022-12-24T02:32:19.701Z,36.23
2022-12-24T02:37:31.339Z,37.47
2022-12-24T02:40:01.539Z,36.97
2022-12-24T02:42:38.041Z,38.08
2022-12-24T02:45:18.164Z,37.15
2022-12-24T02:47:46.594Z,36.67
2022-12-24T02:50:14.992Z,36.15
2022-12-24T02:52:47.399Z,36.58
2022-12-24T02:55:22.166Z,37.38
2022-12-24T02:57:57.993Z,37.83
2022-12-24T03:00:25.978Z,37.15
2022-12-24T03:03:27.143Z,36.30
2022-12-24T03:06:22.411Z,36.75
2022-12-24T03:08:52.449Z,34.63
2022-12-24T03:11:19.676Z,36.47
2022-12-24T03:13:47.940Z,35.58
2022-12-24T03:16:21.351Z,34.90
2022-12-24T03:18:50.924Z,38.03
2022-12-24T03:21:32.370Z,35.67
2022-12-24T03:23:59.467Z,36.15
2022-12-24T03:26:28.770Z,36.92
2022-12-24T03:28:56.129Z,35.53
2022-12-24T03:31:23.401Z,35.15
2022-12-24T03:33:50.960Z,35.63
2022-12-24T03:36:18.405Z,36.50
2022-12-24T03:38:45.340Z,38.38
2022-12-24T03:41:12.358Z,36.05
2022-12-24T03:43:39.336Z,36.65
2022-12-24T03:46:08.051Z,39.47
2022-12-24T03:48:35.853Z,38.40
2022-12-24T03:51:04.396Z,39.67
2022-12-24T03:53:31.717Z,39.55
2022-12-24T03:55:59.056Z,37.13
2022-12-24T03:58:26.080Z,35.25
2022-12-24T04:00:54.137Z,38.08
2022-12-24T04:03:21.451Z,38.90
2022-12-24T04:05:48.647Z,39.60
2022-12-24T04:08:15.608Z,39.55
2022-12-24T04:10:42.672Z,38.28
2022-12-24T04:13:09.621Z,40.25
2022-12-24T04:15:36.690Z,38.05
2022-12-24T04:18:03.783Z,38.85
2022-12-24T04:20:30.722Z,39.47
2022-12-24T04:22:57.670Z,40.60
2022-12-24T04:25:24.672Z,41.53
2022-12-24T04:27:51.736Z,41.50
2022-12-24T04:30:19.119Z,42.08
2022-12-24T04:32:46.130Z,40.88
2022-12-24T04:35:13.079Z,42.63
2022-12-24T04:37:40.088Z,43.10
2022-12-24T04:40:07.797Z,41.20
2022-12-24T04:42:34.724Z,42.92
2022-12-24T04:45:01.691Z,38.15
2022-12-24T04:47:28.656Z,40.58
2022-12-24T04:49:55.755Z,41.75
2022-12-24T04:52:22.743Z,41.20
2022-12-24T04:54:49.696Z,39.28
2022-12-24T04:57:16.758Z,41.88
2022-12-24T04:59:43.729Z,41.67
2022-12-24T05:02:10.981Z,41.80
2022-12-24T05:04:38.388Z,42.08
2022-12-24T05:07:05.381Z,43.83
2022-12-24T05:09:32.425Z,44.50
2022-12-24T05:11:59.623Z,42.47
2022-12-24T05:14:26.724Z,41.58
2022-12-24T05:16:53.697Z,40.40
2022-12-24T05:19:20.754Z,42.10
2022-12-24T05:22:07.790Z,39.72
2022-12-24T05:24:53.095Z,41.22
2022-12-24T05:27:20.234Z,39.90
2022-12-24T05:29:47.164Z,43.58
2022-12-24T05:32:14.097Z,40.67
2022-12-24T05:34:41.027Z,43.08
2022-12-24T05:37:07.927Z,42.60
2022-12-24T05:39:34.955Z,40.40
2022-12-24T05:42:01.903Z,41.65
2022-12-24T05:44:28.879Z,43.17
2022-12-24T05:46:55.757Z,44.83
2022-12-24T05:49:22.758Z,40.00
2022-12-24T05:51:49.672Z,41.83
2022-12-24T05:54:16.737Z,41.10
2022-12-24T05:56:43.735Z,43.63
2022-12-24T05:59:10.751Z,43.55
2022-12-24T06:01:37.807Z,42.38
2022-12-24T06:04:05.358Z,43.30
2022-12-24T06:06:32.773Z,44.90
2022-12-24T06:08:59.694Z,46.20
2022-12-24T06:11:28.155Z,45.78
2022-12-24T06:13:55.941Z,45.22
2022-12-24T06:16:24.212Z,46.33
2022-12-24T06:18:51.539Z,45.22
2022-12-24T06:21:18.836Z,46.42
2022-12-24T06:23:46.623Z,44.35
2022-12-24T06:26:16.835Z,42.15
2022-12-24T06:28:44.761Z,46.92
2022-12-24T06:31:14.626Z,45.10
2022-12-24T06:33:41.805Z,44.95
2022-12-24T06:36:17.509Z,46.67
2022-12-24T06:38:46.517Z,45.08
2022-12-24T06:41:13.794Z,45.88
2022-12-24T06:43:48.412Z,47.28
2022-12-24T06:46:16.162Z,44.78
2022-12-24T06:48:44.869Z,46.72
2022-12-24T06:51:13.067Z,45.63
2022-12-24T06:53:40.049Z,43.45
2022-12-24T06:56:09.397Z,42.42
2022-12-24T06:58:36.723Z,43.63
2022-12-24T07:01:07.792Z,44.17
2022-12-24T07:03:35.277Z,45.20
2022-12-24T07:06:02.386Z,47.05
2022-12-24T07:08:29.657Z,45.83
2022-12-24T07:10:56.676Z,43.85
2022-12-24T07:13:23.705Z,41.85
2022-12-24T07:16:01.796Z,43.53
2022-12-24T07:18:29.346Z,41.15
2022-12-24T07:20:56.745Z,38.83
2022-12-24T07:23:24.013Z,40.50
2022-12-24T07:25:50.964Z,41.40
2022-12-24T07:28:21.035Z,40.78
2022-12-24T07:30:52.674Z,42.65
2022-12-24T07:33:19.819Z,39.92
2022-12-24T07:35:50.787Z,40.92
2022-12-24T07:38:20.992Z,37.55
2022-12-24T07:40:48.607Z,38.15
2022-12-24T07:43:15.623Z,38.60
2022-12-24T07:45:43.131Z,37.42
2022-12-24T07:48:10.109Z,39.25
2022-12-24T07:50:37.077Z,36.53
2022-12-24T07:53:04.049Z,35.28
2022-12-24T07:55:30.991Z,36.30
2022-12-24T07:57:57.964Z,36.60
2022-12-24T08:00:24.895Z,36.30
2022-12-24T08:02:52.006Z,36.50
2022-12-24T08:05:19.188Z,35.45
2022-12-24T08:07:46.113Z,37.05
2022-12-24T08:10:13.051Z,34.70
2022-12-24T08:12:40.088Z,36.72
2022-12-24T08:15:07.435Z,34.85
2022-12-24T08:17:34.346Z,37.78
2022-12-24T08:20:01.287Z,37.50
2022-12-24T08:22:28.236Z,36.83
2022-12-24T08:24:55.140Z,37.83
2022-12-24T08:27:22.079Z,36.65
2022-12-24T08:29:49.140Z,45.38
2022-12-24T08:32:16.088Z,37.20
2022-12-24T08:34:42.969Z,39.33
2022-12-24T08:37:09.905Z,33.17
2022-12-24T08:39:36.856Z,33.20
2022-12-24T08:42:04.096Z,31.05
2022-12-24T08:44:31.070Z,33.17
2022-12-24T08:46:57.969Z,36.28
2022-12-24T08:49:25.029Z,36.13
2022-12-24T08:51:52.147Z,35.97
2022-12-24T08:54:19.656Z,37.85
2022-12-24T08:56:46.594Z,35.65
2022-12-24T08:59:13.504Z,32.95
2022-12-24T09:01:40.569Z,30.92
2022-12-24T09:04:07.692Z,32.38
2022-12-24T09:06:34.644Z,30.27
2022-12-24T09:09:01.993Z,29.65
2022-12-24T09:11:28.977Z,31.52
2022-12-24T09:13:55.980Z,33.50
2022-12-24T09:16:23.033Z,34.40
2022-12-24T09:18:50.030Z,38.10
2022-12-24T09:21:17.803Z,39.13
2022-12-24T09:23:47.468Z,44.67
2022-12-24T09:26:17.705Z,36.47
2022-12-24T09:28:45.288Z,36.95
2022-12-24T09:31:13.210Z,40.08
2022-12-24T09:33:41.732Z,38.35
2022-12-24T09:36:08.836Z,38.92
2022-12-24T09:38:36.935Z,33.33
2022-12-24T09:41:22.540Z,31.80
2022-12-24T09:43:56.583Z,32.88
2022-12-24T09:46:33.914Z,31.55
2022-12-24T09:49:10.407Z,32.63
2022-12-24T09:51:49.812Z,31.25
2022-12-24T09:54:19.817Z,37.13
2022-12-24T09:56:48.712Z,31.80
2022-12-24T09:59:23.569Z,32.63
2022-12-24T10:01:55.252Z,32.13
2022-12-24T10:04:28.635Z,32.60
2022-12-24T10:07:50.141Z,31.50
2022-12-24T10:10:31.385Z,35.45
2022-12-24T10:13:24.084Z,35.75
2022-12-24T10:16:14.245Z,32.88
2022-12-24T10:18:58.788Z,33.80
2022-12-24T10:21:54.710Z,37.65
2022-12-24T10:24:30.411Z,39.50
2022-12-24T10:27:06.636Z,39.95
2022-12-24T10:29:39.211Z,40.40
2022-12-24T10:32:08.959Z,42.67
2022-12-24T10:34:43.800Z,41.95
2022-12-24T10:37:28.619Z,41.83
2022-12-24T10:39:58.004Z,40.92
2022-12-24T10:42:34.179Z,43.15
2022-12-24T10:45:05.895Z,44.33
2022-12-24T10:47:37.105Z,45.05
2022-12-24T10:50:28.289Z,47.13
2022-12-24T10:53:07.914Z,45.00
2022-12-24T10:55:35.652Z,48.72
2022-12-24T10:58:05.487Z,46.55
2022-12-24T11:00:36.600Z,46.50
2022-12-24T11:03:12.892Z,47.80
2022-12-24T11:05:40.710Z,50.55
2022-12-24T11:08:17.601Z,47.25
2022-12-24T11:10:56.701Z,49.90
2022-12-24T11:13:39.342Z,50.80
2022-12-24T11:16:19.531Z,52.03
2022-12-24T11:18:52.894Z,54.85
2022-12-24T11:21:31.547Z,52.40
2022-12-24T11:24:24.444Z,53.45
2022-12-24T11:26:51.352Z,50.53
2022-12-24T11:29:26.471Z,55.25
2022-12-24T11:32:09.971Z,53.13
2022-12-24T11:34:36.952Z,55.58
2022-12-24T11:37:30.141Z,56.25
2022-12-24T11:40:01.565Z,55.83
2022-12-24T11:42:40.737Z,56.60
2022-12-24T11:45:24.677Z,59.17
2022-12-24T11:47:53.637Z,54.10
2022-12-24T11:50:31.804Z,56.95
2022-12-24T11:53:12.093Z,59.58
2022-12-24T11:55:54.977Z,57.78
2022-12-24T11:58:31.271Z,56.20
2022-12-24T12:01:22.040Z,57.13
2022-12-24T12:03:54.609Z,59.05
2022-12-24T12:06:45.555Z,56.28
2022-12-24T12:09:20.164Z,57.00
2022-12-24T12:11:52.731Z,55.63
2022-12-24T12:14:31.211Z,54.83
2022-12-24T12:17:06.147Z,56.00
2022-12-24T12:19:47.477Z,54.40
2022-12-24T12:22:58.088Z,55.60
2022-12-24T12:26:03.963Z,51.83
2022-12-24T12:28:36.534Z,53.10
2022-12-24T12:31:15.719Z,55.45
2022-12-24T12:33:46.220Z,55.88
2022-12-24T12:36:17.853Z,51.13
2022-12-24T12:38:45.001Z,53.33
2022-12-24T12:41:33.196Z,53.17
2022-12-24T12:44:27.946Z,55.47
2022-12-24T12:47:13.674Z,53.67
2022-12-24T12:50:03.286Z,47.22
2022-12-24T12:52:57.430Z,47.53
2022-12-24T12:55:36.325Z,49.22
2022-12-24T12:58:19.268Z,50.55
2022-12-24T13:00:49.528Z,48.67
2022-12-24T13:03:40.442Z,49.50
2022-12-24T13:06:13.687Z,51.03
2022-12-24T13:08:49.458Z,48.78
2022-12-24T13:11:48.276Z,49.72
2022-12-24T13:14:18.289Z,52.03
2022-12-24T13:16:54.955Z,54.35
2022-12-24T13:19:30.440Z,56.00
2022-12-24T13:22:02.168Z,53.33
2022-12-24T13:24:31.778Z,56.63
2022-12-24T13:27:23.376Z,60.35
2022-12-24T13:29:58.472Z,60.65
2022-12-24T13:32:28.591Z,60.25
2022-12-24T13:35:03.423Z,62.53
2022-12-24T13:37:36.982Z,60.42
2022-12-24T13:40:09.964Z,62.40
2022-12-24T13:43:12.357Z,61.95
2022-12-24T13:45:39.352Z,62.38
2022-12-24T13:48:06.237Z,64.90
2022-12-24T13:50:37.679Z,62.72
2022-12-24T13:53:06.581Z,64.38
2022-12-24T13:55:34.395Z,63.55
2022-12-24T13:58:05.898Z,61.90
2022-12-24T14:00:54.453Z,57.03
2022-12-24T14:03:24.213Z,66.25
2022-12-24T14:05:55.276Z,63.33
2022-12-24T14:08:25.506Z,66.68
2022-12-24T14:11:13.471Z,68.82
2022-12-24T14:13:40.402Z,71.22
2022-12-24T14:16:20.613Z,69.32
2022-12-24T14:19:01.316Z,70.90
2022-12-24T14:21:43.830Z,73.50
2022-12-24T14:24:15.843Z,72.00
2022-12-24T14:26:51.032Z,67.20
2022-12-24T14:29:41.567Z,63.78
2022-12-24T14:32:15.425Z,64.15
2022-12-24T14:34:43.115Z,64.25
2022-12-24T14:37:12.970Z,61.63
2022-12-24T14:39:44.773Z,63.58
2022-12-24T14:42:23.069Z,62.97
2022-12-24T14:45:11.611Z,63.28
2022-12-24T14:48:11.532Z,68.72
2022-12-24T14:51:17.747Z,64.90
2022-12-24T14:54:02.953Z,66.13
2022-12-24T14:56:29.920Z,64.57
2022-12-24T14:58:59.077Z,67.35
2022-12-24T15:01:31.629Z,64.13
2022-12-24T15:04:06.013Z,62.80
2022-12-24T15:06:36.949Z,67.82
2022-12-24T15:09:04.951Z,77.25
2022-12-24T15:11:32.378Z,69.03
2022-12-24T15:14:00.664Z,63.15
2022-12-24T15:16:37.049Z,65.20
2022-12-24T15:19:20.555Z,72.20
2022-12-24T15:21:47.709Z,62.20
2022-12-24T15:24:34.959Z,67.80
2022-12-24T15:27:18.268Z,65.47
2022-12-24T15:29:47.361Z,64.00
2022-12-24T15:32:16.649Z,65.93
2022-12-24T15:34:46.169Z,66.65
2022-12-24T15:37:25.893Z,66.10
2022-12-24T15:39:55.854Z,63.47
2022-12-24T15:42:23.936Z,64.13
2022-12-24T15:45:04.664Z,63.40
2022-12-24T15:47:44.143Z,64.10
2022-12-24T15:50:30.746Z,62.08
2022-12-24T15:53:18.539Z,64.75
2022-12-24T15:56:02.708Z,65.93
2022-12-24T15:58:35.533Z,68.13
2022-12-24T16:01:05.607Z,65.10
2022-12-24T16:03:33.851Z,68.97
2022-12-24T16:06:03.160Z,68.60
2022-12-24T16:08:41.213Z,65.43
2022-12-24T16:11:16.055Z,65.25
2022-12-24T16:13:50.229Z,62.45
2022-12-24T16:16:21.535Z,62.35
2022-12-24T16:18:51.469Z,68.15
2022-12-24T16:21:44.577Z,62.65
2022-12-24T16:24:21.498Z,64.43
2022-12-24T16:26:48.605Z,62.72
2022-12-24T16:29:16.530Z,63.60
2022-12-24T16:31:51.481Z,64.15
2022-12-24T16:34:20.667Z,72.13
2022-12-24T16:36:47.731Z,75.30
2022-12-24T16:39:24.823Z,71.90
2022-12-24T16:42:11.883Z,65.57
2022-12-24T16:44:39.652Z,62.28
2022-12-24T16:47:11.864Z,63.20
2022-12-24T16:49:39.465Z,64.18
2022-12-24T16:52:08.843Z,64.75
2022-12-24T16:54:36.089Z,65.32
2022-12-24T16:57:03.090Z,62.95
2022-12-24T16:59:30.085Z,69.70
2022-12-24T17:01:57.097Z,69.43
2022-12-24T17:04:24.169Z,70.88
2022-12-24T17:06:51.117Z,70.65
2022-12-24T17:09:18.176Z,66.90
2022-12-24T17:11:45.083Z,66.55
2022-12-24T17:14:19.792Z,68.13
2022-12-24T17:16:47.495Z,67.50
2022-12-24T17:19:14.495Z,68.30
2022-12-24T17:21:41.497Z,67.60
2022-12-24T17:24:09.235Z,70.75
2022-12-24T17:26:36.961Z,68.75
2022-12-24T17:29:05.278Z,68.97
2022-12-24T17:31:33.318Z,73.03
2022-12-24T17:34:01.072Z,71.97
2022-12-24T17:36:27.997Z,71.43
2022-12-24T17:38:54.963Z,69.15
2022-12-24T17:41:22.313Z,72.95
2022-12-24T17:43:49.683Z,73.40
2022-12-24T17:46:21.554Z,74.05
2022-12-24T17:48:52.212Z,75.50
2022-12-24T17:51:22.418Z,71.35
2022-12-24T17:53:49.972Z,73.75
2022-12-24T17:56:17.740Z,71.22
2022-12-24T17:58:46.090Z,71.65
2022-12-24T18:01:19.143Z,72.47
2022-12-24T18:03:47.264Z,76.43
2022-12-24T18:06:14.934Z,77.50
2022-12-24T18:08:44.051Z,76.25
2022-12-24T18:11:24.187Z,76.68
2022-12-24T18:13:51.698Z,78.05
2022-12-24T18:16:22.489Z,79.18
2022-12-24T18:18:50.562Z,77.05
2022-12-24T18:21:19.619Z,75.28
2022-12-24T18:23:48.848Z,73.13
2022-12-24T18:26:17.130Z,70.35
2022-12-24T18:28:44.916Z,64.78
2022-12-24T18:31:18.072Z,64.00
2022-12-24T18:33:47.328Z,61.70
2022-12-24T18:36:14.808Z,60.33
2022-12-24T18:38:42.022Z,60.60
2022-12-24T18:41:12.180Z,62.55
2022-12-24T18:43:39.562Z,59.60
2022-12-24T18:46:11.640Z,59.63
2022-12-24T18:48:39.298Z,60.53
2022-12-24T18:51:07.410Z,56.05
2022-12-24T18:53:35.912Z,57.72
2022-12-24T18:56:08.782Z,58.45
2022-12-24T18:58:37.907Z,58.72
2022-12-24T19:01:16.714Z,60.72
2022-12-24T19:03:43.857Z,59.63
2022-12-24T19:06:11.414Z,60.40
2022-12-24T19:11:26.402Z,62.65
2022-12-24T19:13:53.502Z,59.22
2022-12-24T19:16:21.448Z,57.45
2022-12-24T19:18:48.846Z,55.88
2022-12-24T19:21:17.511Z,56.70
2022-12-24T19:23:45.504Z,58.83
2022-12-24T19:26:13.552Z,58.25
2022-12-24T19:28:40.564Z,54.50
2022-12-24T19:31:10.013Z,57.38
2022-12-24T19:33:42.381Z,52.40
2022-12-24T19:36:12.892Z,51.65
2022-12-24T19:38:39.982Z,51.65
2022-12-24T19:41:12.507Z,51.88
2022-12-24T19:43:41.508Z,51.17
2022-12-24T19:46:10.471Z,51.08
2022-12-24T19:48:38.633Z,50.33
2022-12-24T19:51:08.570Z,50.45
2022-12-24T19:53:37.084Z,48.92
2022-12-24T19:56:04.808Z,49.38
2022-12-24T19:58:32.787Z,47.90
2022-12-24T20:01:15.567Z,45.35
2022-12-24T20:03:43.865Z,47.75
2022-12-24T20:06:11.739Z,47.60
2022-12-24T20:08:39.370Z,43.10
2022-12-24T20:11:08.755Z,41.55
2022-12-24T20:13:37.685Z,43.30
2022-12-24T20:16:05.777Z,40.65
2022-12-24T20:18:33.605Z,41.03
2022-12-24T20:21:06.302Z,47.50
2022-12-24T20:23:33.635Z,43.90
2022-12-24T20:26:03.660Z,39.88
2022-12-24T20:28:32.829Z,38.10
2022-12-24T20:30:59.977Z,38.95
2022-12-24T20:33:27.484Z,36.00
2022-12-24T20:35:54.579Z,36.72
2022-12-24T20:38:21.641Z,34.75
2022-12-24T20:40:48.653Z,33.30
2022-12-24T20:43:19.741Z,41.58
2022-12-24T20:45:51.464Z,36.55
2022-12-24T20:48:19.127Z,43.28
2022-12-24T20:50:46.773Z,34.85
2022-12-24T20:53:14.547Z,35.88
2022-12-24T20:55:42.098Z,38.45
2022-12-24T20:58:12.247Z,39.72
2022-12-24T21:00:39.504Z,38.50
2022-12-24T21:03:06.618Z,37.50
2022-12-24T21:05:33.638Z,39.55
2022-12-24T21:08:00.653Z,36.33
2022-12-24T21:10:33.877Z,33.00
2022-12-24T21:15:32.045Z,32.50
2022-12-24T21:17:59.511Z,35.33
2022-12-24T21:20:31.329Z,33.35
2022-12-24T21:23:01.373Z,31.48
2022-12-24T21:25:28.657Z,33.15
2022-12-24T21:27:55.767Z,31.08
2022-12-24T21:30:23.553Z,29.80
2022-12-24T21:32:51.053Z,34.25
2022-12-24T21:35:18.392Z,40.20
2022-12-24T21:37:45.514Z,38.33
2022-12-24T21:40:12.787Z,40.05
2022-12-24T21:42:39.829Z,31.88
2022-12-24T21:45:07.367Z,45.90
2022-12-24T21:47:35.636Z,31.77
2022-12-24T21:50:21.520Z,33.78
2022-12-24T21:53:12.101Z,31.70
2022-12-24T21:55:39.732Z,32.63
2022-12-24T21:58:06.714Z,34.78
2022-12-24T22:00:35.266Z,37.63
2022-12-24T22:03:02.537Z,33.22
2022-12-24T22:05:34.394Z,33.88
2022-12-24T22:08:20.819Z,32.78
2022-12-24T22:11:06.706Z,34.40
2022-12-24T22:13:33.775Z,34.72
2022-12-24T22:16:00.809Z,29.40
2022-12-24T22:18:27.879Z,32.47
2022-12-24T22:20:55.980Z,37.90
2022-12-24T22:23:23.583Z,30.10
2022-12-24T22:25:50.665Z,28.63
2022-12-24T22:28:17.774Z,26.23
2022-12-24T22:30:44.785Z,25.42
2022-12-24T22:33:12.087Z,27.75
2022-12-24T22:35:40.507Z,27.08
2022-12-24T22:38:10.585Z,27.42
2022-12-24T22:40:40.293Z,28.80
2022-12-24T22:43:07.353Z,24.95
2022-12-24T22:45:34.449Z,27.33
2022-12-24T22:48:02.464Z,24.38
2022-12-24T22:50:29.804Z,26.23
2022-12-24T22:52:56.864Z,25.65
2022-12-24T22:55:24.954Z,25.40
2022-12-24T22:57:52.014Z,26.05
2022-12-24T23:00:54.346Z,25.50
2022-12-24T23:03:21.521Z,25.08
2022-12-24T23:05:56.062Z,26.55
2022-12-24T23:08:23.347Z,27.40
2022-12-24T23:10:50.504Z,27.30
2022-12-24T23:13:36.248Z,25.83
2022-12-24T23:16:07.667Z,24.13
2022-12-24T23:18:34.803Z,23.45
2022-12-24T23:21:06.217Z,24.42
2022-12-24T23:23:37.147Z,26.05
2022-12-24T23:26:15.278Z,24.65
2022-12-24T23:28:42.621Z,25.30
2022-12-24T23:31:09.761Z,25.08
2022-12-24T23:33:37.388Z,23.13
2022-12-24T23:36:05.274Z,23.88
2022-12-24T23:38:32.572Z,25.55
2022-12-24T23:41:01.899Z,23.02
2022-12-24T23:43:29.380Z,23.67
2022-12-24T23:45:56.818Z,24.90
2022-12-24T23:48:25.326Z,23.92
2022-12-24T23:50:52.916Z,23.33
2022-12-24T23:53:20.898Z,23.55
2022-12-24T23:55:47.836Z,24.48
2022-12-24T23:58:15.476Z,22.55
